sensor_id;sensor_type;location;lat;lon;timestamp;noise_LAeq;noise_LA_min;noise_LA_max;noise_LA01;noise_LA95
58303;Laerm;44109;52.398;7.024;2022-08-21T00:00:32;48.27;32.30;58.56;;
58303;Laerm;44109;52.398;7.024;2022-08-21T00:03:05;48.37;32.43;58.42;;
58303;Laerm;44109;52.398;7.024;2022-08-21T00:05:38;47.98;32.03;58.73;;
58303;Laerm;44109;52.398;7.024;2022-08-21T00:08:06;47.90;32.04;58.60;;
58303;Laerm;44109;52.398;7.024;2022-08-21T00:10:34;48.21;32.18;58.34;;
58303;Laerm;44109;52.398;7.024;2022-08-21T00:13:04;48.37;32.51;58.51;;
58303;Laerm;44109;52.398;7.024;2022-08-21T00:15:37;48.08;32.09;58.55;;
58303;Laerm;44109;52.398;7.024;2022-08-21T00:18:07;47.84;32.27;58.38;;
58303;Laerm;44109;52.398;7.024;2022-08-21T00:20:35;48.35;32.39;58.55;;
58303;Laerm;44109;52.398;7.024;2022-08-21T00:23:04;48.38;32.05;59.00;;
58303;Laerm;44109;52.398;7.024;2022-08-21T00:25:31;48.47;32.39;61.56;;
58303;Laerm;44109;52.398;7.024;2022-08-21T00:27:59;48.19;32.07;58.51;;
58303;Laerm;44109;52.398;7.024;2022-08-21T00:30:30;48.13;32.54;58.44;;
58303;Laerm;44109;52.398;7.024;2022-08-21T00:32:59;48.51;32.63;59.25;;
58303;Laerm;44109;52.398;7.024;2022-08-21T00:35:32;48.08;32.45;58.58;;
58303;Laerm;44109;52.398;7.024;2022-08-21T00:38:02;47.95;32.52;58.57;;
58303;Laerm;44109;52.398;7.024;2022-08-21T00:40:35;48.06;32.39;58.67;;
58303;Laerm;44109;52.398;7.024;2022-08-21T00:43:05;47.82;32.16;58.22;;
58303;Laerm;44109;52.398;7.024;2022-08-21T00:45:34;48.12;32.44;58.79;;
58303;Laerm;44109;52.398;7.024;2022-08-21T00:48:05;48.12;32.65;58.81;;
58303;Laerm;44109;52.398;7.024;2022-08-21T00:50:38;48.02;32.43;58.55;;
58303;Laerm;44109;52.398;7.024;2022-08-21T00:53:10;48.02;32.28;58.28;;
58303;Laerm;44109;52.398;7.024;2022-08-21T00:55:40;48.11;32.14;58.47;;
58303;Laerm;44109;52.398;7.024;2022-08-21T00:58:11;48.13;32.17;59.05;;
58303;Laerm;44109;52.398;7.024;2022-08-21T01:00:43;48.14;32.01;58.71;;
58303;Laerm;44109;52.398;7.024;2022-08-21T01:03:17;47.94;32.09;58.38;;
58303;Laerm;44109;52.398;7.024;2022-08-21T01:05:45;35.26;32.29;44.49;;
58303;Laerm;44109;52.398;7.024;2022-08-21T01:08:16;47.77;32.47;58.71;;
58303;Laerm;44109;52.398;7.024;2022-08-21T01:10:46;48.04;32.73;58.17;;
58303;Laerm;44109;52.398;7.024;2022-08-21T01:13:17;48.01;32.33;58.59;;
58303;Laerm;44109;52.398;7.024;2022-08-21T01:15:48;47.96;32.39;58.42;;
58303;Laerm;44109;52.398;7.024;2022-08-21T01:18:21;47.61;32.26;58.09;;
58303;Laerm;44109;52.398;7.024;2022-08-21T01:21:13;47.44;32.30;58.54;;
58303;Laerm;44109;52.398;7.024;2022-08-21T01:23:44;47.88;32.13;58.44;;
58303;Laerm;44109;52.398;7.024;2022-08-21T01:26:15;48.05;32.35;58.42;;
58303;Laerm;44109;52.398;7.024;2022-08-21T01:28:51;47.79;32.23;58.11;;
58303;Laerm;44109;52.398;7.024;2022-08-21T01:31:23;47.89;32.01;59.09;;
58303;Laerm;44109;52.398;7.024;2022-08-21T01:33:51;47.91;32.21;58.27;;
58303;Laerm;44109;52.398;7.024;2022-08-21T01:36:21;47.93;32.09;58.16;;
58303;Laerm;44109;52.398;7.024;2022-08-21T01:38:49;47.95;32.44;58.38;;
58303;Laerm;44109;52.398;7.024;2022-08-21T01:41:17;47.92;32.55;58.40;;
58303;Laerm;44109;52.398;7.024;2022-08-21T01:43:45;47.85;32.47;58.36;;
58303;Laerm;44109;52.398;7.024;2022-08-21T01:46:13;48.02;32.26;58.25;;
58303;Laerm;44109;52.398;7.024;2022-08-21T01:48:41;47.83;32.37;58.36;;
58303;Laerm;44109;52.398;7.024;2022-08-21T01:51:09;48.04;32.29;58.30;;
58303;Laerm;44109;52.398;7.024;2022-08-21T01:53:39;47.82;32.25;58.60;;
58303;Laerm;44109;52.398;7.024;2022-08-21T01:56:10;47.74;32.52;58.08;;
58303;Laerm;44109;52.398;7.024;2022-08-21T01:58:39;47.75;32.45;58.78;;
58303;Laerm;44109;52.398;7.024;2022-08-21T02:01:07;47.76;32.39;58.53;;
58303;Laerm;44109;52.398;7.024;2022-08-21T02:03:35;47.77;32.54;58.00;;
58303;Laerm;44109;52.398;7.024;2022-08-21T02:06:05;47.71;32.22;58.21;;
58303;Laerm;44109;52.398;7.024;2022-08-21T02:08:33;47.68;32.41;58.28;;
58303;Laerm;44109;52.398;7.024;2022-08-21T02:11:02;47.64;32.51;58.08;;
58303;Laerm;44109;52.398;7.024;2022-08-21T02:13:30;47.72;32.29;58.32;;
58303;Laerm;44109;52.398;7.024;2022-08-21T02:15:57;47.68;32.48;58.30;;
58303;Laerm;44109;52.398;7.024;2022-08-21T02:18:25;48.36;32.37;63.28;;
58303;Laerm;44109;52.398;7.024;2022-08-21T02:20:53;47.62;32.41;58.29;;
58303;Laerm;44109;52.398;7.024;2022-08-21T02:23:20;47.66;32.34;58.10;;
58303;Laerm;44109;52.398;7.024;2022-08-21T02:25:48;47.64;32.25;58.09;;
58303;Laerm;44109;52.398;7.024;2022-08-21T02:28:17;47.56;32.67;58.22;;
58303;Laerm;44109;52.398;7.024;2022-08-21T02:30:47;47.58;32.34;58.60;;
58303;Laerm;44109;52.398;7.024;2022-08-21T02:33:16;47.76;32.51;60.04;;
58303;Laerm;44109;52.398;7.024;2022-08-21T02:35:45;47.73;32.57;59.99;;
58303;Laerm;44109;52.398;7.024;2022-08-21T02:38:17;47.78;32.40;58.28;;
58303;Laerm;44109;52.398;7.024;2022-08-21T02:40:49;47.44;32.52;57.98;;
58303;Laerm;44109;52.398;7.024;2022-08-21T02:43:20;47.43;32.46;58.10;;
58303;Laerm;44109;52.398;7.024;2022-08-21T02:45:49;47.53;32.47;58.35;;
58303;Laerm;44109;52.398;7.024;2022-08-21T02:48:20;47.54;32.34;58.17;;
58303;Laerm;44109;52.398;7.024;2022-08-21T02:50:59;47.27;32.22;58.46;;
58303;Laerm;44109;52.398;7.024;2022-08-21T02:53:28;47.46;31.95;58.00;;
58303;Laerm;44109;52.398;7.024;2022-08-21T02:55:59;47.45;32.33;57.94;;
58303;Laerm;44109;52.398;7.024;2022-08-21T02:58:34;47.49;32.38;58.40;;
58303;Laerm;44109;52.398;7.024;2022-08-21T03:01:03;47.56;32.77;58.72;;
58303;Laerm;44109;52.398;7.024;2022-08-21T03:03:31;47.59;32.45;57.93;;
58303;Laerm;44109;52.398;7.024;2022-08-21T03:06:01;47.50;32.05;58.22;;
58303;Laerm;44109;52.398;7.024;2022-08-21T03:08:28;47.83;32.51;60.12;;
58303;Laerm;44109;52.398;7.024;2022-08-21T03:10:56;47.58;32.48;58.27;;
58303;Laerm;44109;52.398;7.024;2022-08-21T03:13:28;47.45;32.06;58.08;;
58303;Laerm;44109;52.398;7.024;2022-08-21T03:15:56;47.53;32.18;58.15;;
58303;Laerm;44109;52.398;7.024;2022-08-21T03:18:24;47.56;32.10;58.03;;
58303;Laerm;44109;52.398;7.024;2022-08-21T03:20:52;47.68;32.60;58.07;;
58303;Laerm;44109;52.398;7.024;2022-08-21T03:23:19;47.81;32.54;57.72;;
58303;Laerm;44109;52.398;7.024;2022-08-21T03:25:47;47.83;32.06;58.33;;
58303;Laerm;44109;52.398;7.024;2022-08-21T03:28:21;47.41;32.48;57.99;;
58303;Laerm;44109;52.398;7.024;2022-08-21T03:30:52;47.46;32.39;58.25;;
58303;Laerm;44109;52.398;7.024;2022-08-21T03:33:20;47.55;32.83;58.06;;
58303;Laerm;44109;52.398;7.024;2022-08-21T03:35:57;47.43;32.52;58.17;;
58303;Laerm;44109;52.398;7.024;2022-08-21T03:38:28;47.91;32.82;57.85;;
58303;Laerm;44109;52.398;7.024;2022-08-21T03:40:56;47.85;32.75;57.93;;
58303;Laerm;44109;52.398;7.024;2022-08-21T03:43:24;47.73;32.92;58.40;;
58303;Laerm;44109;52.398;7.024;2022-08-21T03:45:54;47.88;32.81;58.42;;
58303;Laerm;44109;52.398;7.024;2022-08-21T03:48:22;48.35;32.70;58.27;;
58303;Laerm;44109;52.398;7.024;2022-08-21T03:50:52;48.43;33.09;59.10;;
58303;Laerm;44109;52.398;7.024;2022-08-21T03:53:20;49.36;32.70;62.54;;
58303;Laerm;44109;52.398;7.024;2022-08-21T03:55:50;48.69;32.89;60.18;;
58303;Laerm;44109;52.398;7.024;2022-08-21T03:58:21;48.56;33.63;59.07;;
58303;Laerm;44109;52.398;7.024;2022-08-21T04:00:55;48.20;32.97;58.27;;
58303;Laerm;44109;52.398;7.024;2022-08-21T04:03:25;48.56;33.08;65.31;;
58303;Laerm;44109;52.398;7.024;2022-08-21T04:05:52;48.62;32.98;58.93;;
58303;Laerm;44109;52.398;7.024;2022-08-21T04:08:20;48.53;32.96;59.79;;
58303;Laerm;44109;52.398;7.024;2022-08-21T04:10:51;49.01;33.36;61.44;;
58303;Laerm;44109;52.398;7.024;2022-08-21T04:13:21;48.56;33.65;59.71;;
58303;Laerm;44109;52.398;7.024;2022-08-21T04:15:49;48.94;33.76;60.44;;
58303;Laerm;44109;52.398;7.024;2022-08-21T04:18:18;49.15;33.23;64.43;;
58303;Laerm;44109;52.398;7.024;2022-08-21T04:20:50;48.79;33.78;60.23;;
58303;Laerm;44109;52.398;7.024;2022-08-21T04:23:19;48.10;33.42;60.04;;
58303;Laerm;44109;52.398;7.024;2022-08-21T04:25:48;48.81;33.32;67.77;;
58303;Laerm;44109;52.398;7.024;2022-08-21T04:28:15;48.77;33.72;60.15;;
58303;Laerm;44109;52.398;7.024;2022-08-21T04:30:44;48.47;32.75;59.54;;
58303;Laerm;44109;52.398;7.024;2022-08-21T04:33:12;49.24;33.67;65.94;;
58303;Laerm;44109;52.398;7.024;2022-08-21T04:35:41;48.70;33.43;60.15;;
58303;Laerm;44109;52.398;7.024;2022-08-21T04:38:09;49.55;33.41;70.28;;
58303;Laerm;44109;52.398;7.024;2022-08-21T04:40:37;48.17;34.17;59.44;;
58303;Laerm;44109;52.398;7.024;2022-08-21T04:43:08;49.30;34.10;72.21;;
58303;Laerm;44109;52.398;7.024;2022-08-21T04:45:39;48.47;33.71;63.43;;
58303;Laerm;44109;52.398;7.024;2022-08-21T04:48:10;51.46;34.16;73.49;;
58303;Laerm;44109;52.398;7.024;2022-08-21T04:50:50;49.31;33.88;61.38;;
58303;Laerm;44109;52.398;7.024;2022-08-21T04:53:23;54.55;34.24;77.16;;
58303;Laerm;44109;52.398;7.024;2022-08-21T04:55:54;50.05;33.86;65.13;;
58303;Laerm;44109;52.398;7.024;2022-08-21T04:58:27;49.06;35.44;59.42;;
58303;Laerm;44109;52.398;7.024;2022-08-21T05:00:58;50.98;34.75;70.73;;
58303;Laerm;44109;52.398;7.024;2022-08-21T05:03:28;52.47;34.75;72.45;;
58303;Laerm;44109;52.398;7.024;2022-08-21T05:06:00;48.87;34.26;65.50;;
58303;Laerm;44109;52.398;7.024;2022-08-21T05:08:28;49.25;34.20;58.26;;
58303;Laerm;44109;52.398;7.024;2022-08-21T05:10:56;49.02;34.48;63.23;;
58303;Laerm;44109;52.398;7.024;2022-08-21T05:13:24;51.77;34.68;65.46;;
58303;Laerm;44109;52.398;7.024;2022-08-21T05:15:52;52.41;35.33;63.35;;
58303;Laerm;44109;52.398;7.024;2022-08-21T05:18:19;50.09;34.24;62.98;;
58303;Laerm;44109;52.398;7.024;2022-08-21T05:20:47;49.09;34.83;59.79;;
58303;Laerm;44109;52.398;7.024;2022-08-21T05:23:16;48.26;34.28;58.65;;
58303;Laerm;44109;52.398;7.024;2022-08-21T05:25:44;48.22;33.88;60.55;;
58303;Laerm;44109;52.398;7.024;2022-08-21T05:28:12;48.43;34.01;58.72;;
58303;Laerm;44109;52.398;7.024;2022-08-21T05:30:40;51.41;33.48;63.35;;
58303;Laerm;44109;52.398;7.024;2022-08-21T05:33:07;53.18;33.98;63.69;;
58303;Laerm;44109;52.398;7.024;2022-08-21T05:35:38;50.50;34.26;62.87;;
58303;Laerm;44109;52.398;7.024;2022-08-21T05:38:06;48.86;33.20;59.40;;
58303;Laerm;44109;52.398;7.024;2022-08-21T05:40:34;49.45;33.60;63.80;;
58303;Laerm;44109;52.398;7.024;2022-08-21T05:43:02;49.81;33.64;72.22;;
58303;Laerm;44109;52.398;7.024;2022-08-21T05:45:32;49.96;33.96;61.98;;
58303;Laerm;44109;52.398;7.024;2022-08-21T05:48:06;49.05;33.40;64.25;;
58303;Laerm;44109;52.398;7.024;2022-08-21T05:50:35;49.30;33.34;70.08;;
58303;Laerm;44109;52.398;7.024;2022-08-21T05:53:03;49.26;33.91;59.13;;
58303;Laerm;44109;52.398;7.024;2022-08-21T05:55:31;49.71;33.79;69.27;;
58303;Laerm;44109;52.398;7.024;2022-08-21T05:58:00;49.52;33.40;62.35;;
58303;Laerm;44109;52.398;7.024;2022-08-21T06:00:27;49.78;34.19;64.37;;
58303;Laerm;44109;52.398;7.024;2022-08-21T06:02:55;49.66;33.69;60.02;;
58303;Laerm;44109;52.398;7.024;2022-08-21T06:05:23;49.29;34.01;59.20;;
58303;Laerm;44109;52.398;7.024;2022-08-21T06:07:51;49.87;34.75;60.05;;
58303;Laerm;44109;52.398;7.024;2022-08-21T06:10:18;49.65;34.69;66.45;;
58303;Laerm;44109;52.398;7.024;2022-08-21T06:12:46;49.31;34.36;59.36;;
58303;Laerm;44109;52.398;7.024;2022-08-21T06:15:15;49.62;35.55;64.26;;
58303;Laerm;44109;52.398;7.024;2022-08-21T06:17:42;49.88;34.48;61.12;;
58303;Laerm;44109;52.398;7.024;2022-08-21T06:20:10;49.80;35.55;59.54;;
58303;Laerm;44109;52.398;7.024;2022-08-21T06:22:37;52.39;34.71;63.68;;
58303;Laerm;44109;52.398;7.024;2022-08-21T06:25:06;50.04;34.07;66.74;;
58303;Laerm;44109;52.398;7.024;2022-08-21T06:27:33;52.37;33.79;62.82;;
58303;Laerm;44109;52.398;7.024;2022-08-21T06:30:01;50.65;33.36;64.30;;
58303;Laerm;44109;52.398;7.024;2022-08-21T06:32:30;49.92;34.03;60.15;;
58303;Laerm;44109;52.398;7.024;2022-08-21T06:34:58;50.11;33.72;62.80;;
58303;Laerm;44109;52.398;7.024;2022-08-21T06:37:25;51.09;34.31;76.03;;
58303;Laerm;44109;52.398;7.024;2022-08-21T06:39:53;49.84;33.51;61.89;;
58303;Laerm;44109;52.398;7.024;2022-08-21T06:42:22;50.14;34.34;68.33;;
58303;Laerm;44109;52.398;7.024;2022-08-21T06:44:50;50.24;34.30;64.64;;
58303;Laerm;44109;52.398;7.024;2022-08-21T06:47:17;51.87;35.15;65.02;;
58303;Laerm;44109;52.398;7.024;2022-08-21T06:49:46;52.47;35.41;76.43;;
58303;Laerm;44109;52.398;7.024;2022-08-21T06:52:14;51.64;34.26;63.80;;
58303;Laerm;44109;52.398;7.024;2022-08-21T06:54:42;51.04;33.55;64.64;;
58303;Laerm;44109;52.398;7.024;2022-08-21T06:57:09;52.99;33.17;71.84;;
58303;Laerm;44109;52.398;7.024;2022-08-21T06:59:37;53.44;33.00;72.37;;
58303;Laerm;44109;52.398;7.024;2022-08-21T07:02:04;50.74;33.96;61.71;;
58303;Laerm;44109;52.398;7.024;2022-08-21T07:04:32;54.60;34.14;73.24;;
58303;Laerm;44109;52.398;7.024;2022-08-21T07:07:01;52.63;33.63;69.37;;
58303;Laerm;44109;52.398;7.024;2022-08-21T07:09:28;53.01;35.18;62.99;;
58303;Laerm;44109;52.398;7.024;2022-08-21T07:11:56;51.83;34.71;61.59;;
58303;Laerm;44109;52.398;7.024;2022-08-21T07:14:24;51.23;34.62;62.07;;
58303;Laerm;44109;52.398;7.024;2022-08-21T07:16:52;51.52;36.65;62.07;;
58303;Laerm;44109;52.398;7.024;2022-08-21T07:19:20;52.09;35.51;70.68;;
58303;Laerm;44109;52.398;7.024;2022-08-21T07:21:47;51.81;35.60;62.44;;
58303;Laerm;44109;52.398;7.024;2022-08-21T07:24:16;51.18;33.79;64.96;;
58303;Laerm;44109;52.398;7.024;2022-08-21T07:26:44;52.20;33.56;63.92;;
58303;Laerm;44109;52.398;7.024;2022-08-21T07:29:11;51.60;34.66;65.40;;
58303;Laerm;44109;52.398;7.024;2022-08-21T07:31:39;53.06;34.28;64.35;;
58303;Laerm;44109;52.398;7.024;2022-08-21T07:34:06;52.47;34.43;65.26;;
58303;Laerm;44109;52.398;7.024;2022-08-21T07:36:34;52.54;34.96;70.35;;
58303;Laerm;44109;52.398;7.024;2022-08-21T07:39:02;51.50;34.33;64.10;;
58303;Laerm;44109;52.398;7.024;2022-08-21T07:41:31;51.28;35.29;65.43;;
58303;Laerm;44109;52.398;7.024;2022-08-21T07:44:00;51.33;34.09;61.86;;
58303;Laerm;44109;52.398;7.024;2022-08-21T07:46:29;51.94;34.37;66.77;;
58303;Laerm;44109;52.398;7.024;2022-08-21T07:48:56;51.18;33.92;62.02;;
58303;Laerm;44109;52.398;7.024;2022-08-21T07:51:28;51.11;33.44;61.40;;
58303;Laerm;44109;52.398;7.024;2022-08-21T07:53:58;50.52;34.12;61.12;;
58303;Laerm;44109;52.398;7.024;2022-08-21T07:56:26;51.19;34.53;61.72;;
58303;Laerm;44109;52.398;7.024;2022-08-21T07:58:55;50.84;35.11;63.88;;
58303;Laerm;44109;52.398;7.024;2022-08-21T08:01:24;50.58;33.79;66.41;;
58303;Laerm;44109;52.398;7.024;2022-08-21T08:03:52;51.10;34.59;63.35;;
58303;Laerm;44109;52.398;7.024;2022-08-21T08:06:19;51.85;35.05;71.72;;
58303;Laerm;44109;52.398;7.024;2022-08-21T08:08:47;50.99;34.68;62.54;;
58303;Laerm;44109;52.398;7.024;2022-08-21T08:11:14;50.80;33.64;61.14;;
58303;Laerm;44109;52.398;7.024;2022-08-21T08:13:45;50.86;34.99;66.03;;
58303;Laerm;44109;52.398;7.024;2022-08-21T08:16:15;51.19;34.26;64.72;;
58303;Laerm;44109;52.398;7.024;2022-08-21T08:18:43;51.82;36.12;71.45;;
58303;Laerm;44109;52.398;7.024;2022-08-21T08:21:12;51.60;35.13;67.48;;
58303;Laerm;44109;52.398;7.024;2022-08-21T08:23:40;51.09;34.53;61.50;;
58303;Laerm;44109;52.398;7.024;2022-08-21T08:26:10;53.63;37.06;65.03;;
58303;Laerm;44109;52.398;7.024;2022-08-21T08:28:38;52.33;36.47;67.73;;
58303;Laerm;44109;52.398;7.024;2022-08-21T08:31:05;53.59;34.72;63.61;;
58303;Laerm;44109;52.398;7.024;2022-08-21T08:33:34;52.14;35.78;65.46;;
58303;Laerm;44109;52.398;7.024;2022-08-21T08:36:02;51.11;35.19;61.21;;
58303;Laerm;44109;52.398;7.024;2022-08-21T08:38:30;51.38;34.95;64.41;;
58303;Laerm;44109;52.398;7.024;2022-08-21T08:41:07;51.06;36.25;63.05;;
58303;Laerm;44109;52.398;7.024;2022-08-21T08:43:37;50.78;35.69;71.79;;
58303;Laerm;44109;52.398;7.024;2022-08-21T08:46:14;50.58;34.06;61.47;;
58303;Laerm;44109;52.398;7.024;2022-08-21T08:48:53;51.32;36.81;61.81;;
58303;Laerm;44109;52.398;7.024;2022-08-21T08:51:28;51.52;35.78;65.18;;
58303;Laerm;44109;52.398;7.024;2022-08-21T08:54:06;51.32;36.48;62.10;;
58303;Laerm;44109;52.398;7.024;2022-08-21T08:56:35;51.62;37.53;61.79;;
58303;Laerm;44109;52.398;7.024;2022-08-21T08:59:13;51.57;37.04;61.77;;
58303;Laerm;44109;52.398;7.024;2022-08-21T09:01:42;51.76;37.93;61.95;;
58303;Laerm;44109;52.398;7.024;2022-08-21T09:04:13;51.28;37.67;61.30;;
58303;Laerm;44109;52.398;7.024;2022-08-21T09:07:06;50.63;35.91;61.61;;
58303;Laerm;44109;52.398;7.024;2022-08-21T09:10:04;50.02;36.74;66.13;;
58303;Laerm;44109;52.398;7.024;2022-08-21T09:12:44;50.76;37.36;68.57;;
58303;Laerm;44109;52.398;7.024;2022-08-21T09:15:25;50.45;38.66;61.80;;
58303;Laerm;44109;52.398;7.024;2022-08-21T09:18:31;49.95;36.50;70.77;;
58303;Laerm;44109;52.398;7.024;2022-08-21T09:21:14;50.15;38.18;62.90;;
58303;Laerm;44109;52.398;7.024;2022-08-21T09:23:54;53.03;38.14;71.71;;
58303;Laerm;44109;52.398;7.024;2022-08-21T09:26:30;51.14;37.22;64.26;;
58303;Laerm;44109;52.398;7.024;2022-08-21T09:29:00;51.01;38.75;60.76;;
58303;Laerm;44109;52.398;7.024;2022-08-21T09:31:32;49.98;35.70;60.86;;
58303;Laerm;44109;52.398;7.024;2022-08-21T09:34:02;49.99;37.21;61.82;;
58303;Laerm;44109;52.398;7.024;2022-08-21T09:36:38;50.77;36.73;64.65;;
58303;Laerm;44109;52.398;7.024;2022-08-21T09:39:10;50.52;36.63;64.19;;
58303;Laerm;44109;52.398;7.024;2022-08-21T09:41:40;50.56;39.25;62.81;;
58303;Laerm;44109;52.398;7.024;2022-08-21T09:44:08;50.12;37.64;59.69;;
58303;Laerm;44109;52.398;7.024;2022-08-21T09:46:36;50.41;36.82;62.56;;
58303;Laerm;44109;52.398;7.024;2022-08-21T09:49:04;50.20;37.70;59.97;;
58303;Laerm;44109;52.398;7.024;2022-08-21T09:51:36;50.49;39.55;60.06;;
58303;Laerm;44109;52.398;7.024;2022-08-21T09:54:17;49.39;36.40;59.82;;
58303;Laerm;44109;52.398;7.024;2022-08-21T09:56:56;49.35;36.96;59.80;;
58303;Laerm;44109;52.398;7.024;2022-08-21T09:59:44;49.46;36.77;60.70;;
58303;Laerm;44109;52.398;7.024;2022-08-21T10:02:27;49.60;37.37;60.33;;
58303;Laerm;44109;52.398;7.024;2022-08-21T10:04:58;49.08;36.52;59.70;;
58303;Laerm;44109;52.398;7.024;2022-08-21T10:07:31;49.62;36.94;59.93;;
58303;Laerm;44109;52.398;7.024;2022-08-21T10:10:02;43.77;37.71;55.52;;
58303;Laerm;44109;52.398;7.024;2022-08-21T10:12:41;49.95;36.75;72.62;;
58303;Laerm;44109;52.398;7.024;2022-08-21T10:15:20;49.35;35.85;63.12;;
58303;Laerm;44109;52.398;7.024;2022-08-21T10:18:02;49.64;36.90;65.71;;
58303;Laerm;44109;52.398;7.024;2022-08-21T10:20:42;49.25;36.34;60.83;;
58303;Laerm;44109;52.398;7.024;2022-08-21T10:23:38;50.50;36.27;68.73;;
58303;Laerm;44109;52.398;7.024;2022-08-21T10:26:24;52.83;37.86;69.97;;
58303;Laerm;44109;52.398;7.024;2022-08-21T10:29:03;49.34;37.43;60.26;;
58303;Laerm;44109;52.398;7.024;2022-08-21T10:31:51;49.23;37.51;60.12;;
58303;Laerm;44109;52.398;7.024;2022-08-21T10:34:36;49.58;36.71;66.49;;
58303;Laerm;44109;52.398;7.024;2022-08-21T10:37:27;48.81;38.27;59.94;;
58303;Laerm;44109;52.398;7.024;2022-08-21T10:40:15;49.19;37.53;61.23;;
58303;Laerm;44109;52.398;7.024;2022-08-21T10:43:02;50.66;40.72;64.10;;
58303;Laerm;44109;52.398;7.024;2022-08-21T10:45:48;49.61;36.77;60.91;;
58303;Laerm;44109;52.398;7.024;2022-08-21T10:48:28;49.40;35.59;72.05;;
58303;Laerm;44109;52.398;7.024;2022-08-21T10:51:05;50.16;36.44;73.42;;
58303;Laerm;44109;52.398;7.024;2022-08-21T10:53:52;50.47;38.16;75.52;;
58303;Laerm;44109;52.398;7.024;2022-08-21T10:56:25;50.07;35.90;68.99;;
58303;Laerm;44109;52.398;7.024;2022-08-21T10:59:23;49.27;35.64;62.74;;
58303;Laerm;44109;52.398;7.024;2022-08-21T11:01:59;49.10;35.60;59.59;;
58303;Laerm;44109;52.398;7.024;2022-08-21T11:04:35;49.09;35.87;60.04;;
58303;Laerm;44109;52.398;7.024;2022-08-21T11:07:12;50.04;36.78;73.27;;
58303;Laerm;44109;52.398;7.024;2022-08-21T11:09:47;49.76;36.32;60.67;;
58303;Laerm;44109;52.398;7.024;2022-08-21T11:12:26;49.70;36.25;62.06;;
58303;Laerm;44109;52.398;7.024;2022-08-21T11:15:03;49.25;35.61;60.33;;
58303;Laerm;44109;52.398;7.024;2022-08-21T11:17:43;49.41;36.22;63.60;;
58303;Laerm;44109;52.398;7.024;2022-08-21T11:20:22;49.35;36.68;59.98;;
58303;Laerm;44109;52.398;7.024;2022-08-21T11:23:00;49.57;36.80;60.27;;
58303;Laerm;44109;52.398;7.024;2022-08-21T11:25:36;49.00;34.82;59.41;;
58303;Laerm;44109;52.398;7.024;2022-08-21T11:28:15;49.17;35.79;59.94;;
58303;Laerm;44109;52.398;7.024;2022-08-21T11:31:02;49.42;36.34;59.87;;
58303;Laerm;44109;52.398;7.024;2022-08-21T11:33:52;49.40;35.54;63.16;;
58303;Laerm;44109;52.398;7.024;2022-08-21T11:36:34;48.82;34.75;60.11;;
58303;Laerm;44109;52.398;7.024;2022-08-21T11:39:17;49.76;35.69;68.94;;
58303;Laerm;44109;52.398;7.024;2022-08-21T11:42:00;49.30;35.86;60.46;;
58303;Laerm;44109;52.398;7.024;2022-08-21T11:44:48;49.21;34.49;63.58;;
58303;Laerm;44109;52.398;7.024;2022-08-21T11:47:30;49.90;34.60;71.79;;
58303;Laerm;44109;52.398;7.024;2022-08-21T11:50:13;49.66;36.18;64.71;;
58303;Laerm;44109;52.398;7.024;2022-08-21T11:52:47;50.45;36.59;66.63;;
58303;Laerm;44109;52.398;7.024;2022-08-21T11:55:23;50.24;36.12;71.21;;
58303;Laerm;44109;52.398;7.024;2022-08-21T11:58:01;49.83;36.12;66.32;;
58303;Laerm;44109;52.398;7.024;2022-08-21T12:00:35;49.22;35.31;60.22;;
58303;Laerm;44109;52.398;7.024;2022-08-21T12:03:14;49.17;35.26;59.41;;
58303;Laerm;44109;52.398;7.024;2022-08-21T12:05:54;49.68;35.52;66.73;;
58303;Laerm;44109;52.398;7.024;2022-08-21T12:08:29;49.63;36.73;59.66;;
58303;Laerm;44109;52.398;7.024;2022-08-21T12:11:05;49.35;35.67;61.93;;
58303;Laerm;44109;52.398;7.024;2022-08-21T12:13:37;49.47;36.37;64.05;;
58303;Laerm;44109;52.398;7.024;2022-08-21T12:16:11;49.05;37.05;59.42;;
58303;Laerm;44109;52.398;7.024;2022-08-21T12:18:40;49.22;35.61;60.17;;
58303;Laerm;44109;52.398;7.024;2022-08-21T12:21:22;49.28;35.39;60.03;;
58303;Laerm;44109;52.398;7.024;2022-08-21T12:24:04;48.77;35.99;59.62;;
58303;Laerm;44109;52.398;7.024;2022-08-21T12:26:36;49.34;36.04;59.63;;
58303;Laerm;44109;52.398;7.024;2022-08-21T12:29:22;48.52;35.52;59.54;;
58303;Laerm;44109;52.398;7.024;2022-08-21T12:31:58;49.11;35.01;62.30;;
58303;Laerm;44109;52.398;7.024;2022-08-21T12:34:38;49.32;35.62;59.64;;
58303;Laerm;44109;52.398;7.024;2022-08-21T12:37:18;49.23;36.39;61.13;;
58303;Laerm;44109;52.398;7.024;2022-08-21T12:39:52;49.69;35.23;64.51;;
58303;Laerm;44109;52.398;7.024;2022-08-21T12:42:27;49.23;35.05;60.33;;
58303;Laerm;44109;52.398;7.024;2022-08-21T12:45:04;49.92;36.41;59.78;;
58303;Laerm;44109;52.398;7.024;2022-08-21T12:47:44;49.71;36.15;60.11;;
58303;Laerm;44109;52.398;7.024;2022-08-21T12:50:20;49.16;34.90;59.41;;
58303;Laerm;44109;52.398;7.024;2022-08-21T12:52:59;49.35;34.90;59.93;;
58303;Laerm;44109;52.398;7.024;2022-08-21T12:55:31;49.52;35.01;60.48;;
58303;Laerm;44109;52.398;7.024;2022-08-21T12:58:00;49.40;35.59;60.85;;
58303;Laerm;44109;52.398;7.024;2022-08-21T13:00:30;49.51;34.86;60.52;;
58303;Laerm;44109;52.398;7.024;2022-08-21T13:03:00;50.04;34.46;68.85;;
58303;Laerm;44109;52.398;7.024;2022-08-21T13:05:33;49.56;34.20;60.39;;
58303;Laerm;44109;52.398;7.024;2022-08-21T13:08:05;50.62;35.23;61.51;;
58303;Laerm;44109;52.398;7.024;2022-08-21T13:10:36;49.44;34.55;59.94;;
58303;Laerm;44109;52.398;7.024;2022-08-21T13:13:09;49.61;35.08;60.35;;
58303;Laerm;44109;52.398;7.024;2022-08-21T13:15:41;49.50;34.67;60.37;;
58303;Laerm;44109;52.398;7.024;2022-08-21T13:18:22;49.46;35.68;60.15;;
58303;Laerm;44109;52.398;7.024;2022-08-21T13:20:50;49.82;34.18;60.52;;
58303;Laerm;44109;52.398;7.024;2022-08-21T13:23:23;49.93;35.44;63.67;;
58303;Laerm;44109;52.398;7.024;2022-08-21T13:25:53;49.77;36.22;60.52;;
58303;Laerm;44109;52.398;7.024;2022-08-21T13:28:21;50.47;35.94;62.55;;
58303;Laerm;44109;52.398;7.024;2022-08-21T13:30:52;50.03;36.10;61.04;;
58303;Laerm;44109;52.398;7.024;2022-08-21T13:33:25;50.04;36.15;65.80;;
58303;Laerm;44109;52.398;7.024;2022-08-21T13:36:05;49.76;36.38;61.67;;
58303;Laerm;44109;52.398;7.024;2022-08-21T13:38:37;49.76;35.62;60.80;;
58303;Laerm;44109;52.398;7.024;2022-08-21T13:41:19;49.82;35.43;67.24;;
58303;Laerm;44109;52.398;7.024;2022-08-21T13:43:57;49.93;35.35;66.98;;
58303;Laerm;44109;52.398;7.024;2022-08-21T13:46:30;50.95;35.99;73.96;;
58303;Laerm;44109;52.398;7.024;2022-08-21T13:49:02;50.95;36.00;65.47;;
58303;Laerm;44109;52.398;7.024;2022-08-21T13:51:32;50.72;36.70;65.34;;
58303;Laerm;44109;52.398;7.024;2022-08-21T13:54:01;50.83;36.05;64.23;;
58303;Laerm;44109;52.398;7.024;2022-08-21T13:56:32;50.84;36.27;61.75;;
58303;Laerm;44109;52.398;7.024;2022-08-21T13:59:02;51.01;36.53;62.58;;
58303;Laerm;44109;52.398;7.024;2022-08-21T14:01:34;51.16;36.00;63.97;;
58303;Laerm;44109;52.398;7.024;2022-08-21T14:04:14;50.60;35.19;61.37;;
58303;Laerm;44109;52.398;7.024;2022-08-21T14:06:43;51.01;36.24;61.90;;
58303;Laerm;44109;52.398;7.024;2022-08-21T14:09:23;50.78;36.30;61.46;;
58303;Laerm;44109;52.398;7.024;2022-08-21T14:11:54;51.17;35.83;61.54;;